sensor_id;sensor_type;location;lat;lon;timestamp;P1;durP1;ratioP1;P2;durP2;ratioP2
7503;SDS011;3793;48.136;11.536;2022-07-29T00:01:29;1.73;;;1.20;;
7503;SDS011;3793;48.136;11.536;2022-07-29T00:03:56;2.25;;;1.60;;
7503;SDS011;3793;48.136;11.536;2022-07-29T00:06:22;1.38;;;1.27;;
7503;SDS011;3793;48.136;11.536;2022-07-29T00:08:51;5.07;;;1.70;;
7503;SDS011;3793;48.136;11.536;2022-07-29T00:11:17;2.15;;;1.55;;
7503;SDS011;3793;48.136;11.536;2022-07-29T00:13:44;2.03;;;1.70;;
7503;SDS011;3793;48.136;11.536;2022-07-29T00:16:10;2.92;;;2.05;;
7503;SDS011;3793;48.136;11.536;2022-07-29T00:18:37;4.25;;;2.10;;
7503;SDS011;3793;48.136;11.536;2022-07-29T00:21:04;1.80;;;1.70;;
7503;SDS011;3793;48.136;11.536;2022-07-29T00:23:31;2.83;;;1.50;;
7503;SDS011;3793;48.136;11.536;2022-07-29T00:25:59;3.13;;;1.90;;
7503;SDS011;3793;48.136;11.536;2022-07-29T00:28:25;1.80;;;1.70;;
7503;SDS011;3793;48.136;11.536;2022-07-29T00:30:52;2.38;;;1.98;;
7503;SDS011;3793;48.136;11.536;2022-07-29T00:33:19;3.50;;;1.85;;
7503;SDS011;3793;48.136;11.536;2022-07-29T00:35:46;5.07;;;1.88;;
7503;SDS011;3793;48.136;11.536;2022-07-29T00:38:13;1.90;;;1.70;;
7503;SDS011;3793;48.136;11.536;2022-07-29T00:40:40;1.55;;;1.45;;
7503;SDS011;3793;48.136;11.536;2022-07-29T00:43:08;2.53;;;1.80;;
7503;SDS011;3793;48.136;11.536;2022-07-29T00:45:35;1.77;;;1.67;;
7503;SDS011;3793;48.136;11.536;2022-07-29T00:48:02;2.80;;;1.80;;
7503;SDS011;3793;48.136;11.536;2022-07-29T00:50:30;1.50;;;1.40;;
7503;SDS011;3793;48.136;11.536;2022-07-29T00:52:57;1.60;;;1.42;;
7503;SDS011;3793;48.136;11.536;2022-07-29T00:55:24;2.38;;;1.52;;
7503;SDS011;3793;48.136;11.536;2022-07-29T00:57:50;1.83;;;1.42;;
7503;SDS011;3793;48.136;11.536;2022-07-29T01:00:20;1.50;;;1.40;;
7503;SDS011;3793;48.136;11.536;2022-07-29T01:02:47;1.60;;;1.50;;
7503;SDS011;3793;48.136;11.536;2022-07-29T01:05:14;1.60;;;1.42;;
7503;SDS011;3793;48.136;11.536;2022-07-29T01:07:42;1.50;;;1.17;;
7503;SDS011;3793;48.136;11.536;2022-07-29T01:10:09;3.70;;;1.23;;
7503;SDS011;3793;48.136;11.536;2022-07-29T01:12:36;1.50;;;1.20;;
7503;SDS011;3793;48.136;11.536;2022-07-29T01:15:04;1.30;;;1.20;;
7503;SDS011;3793;48.136;11.536;2022-07-29T01:17:33;1.88;;;1.40;;
7503;SDS011;3793;48.136;11.536;2022-07-29T01:20:03;1.60;;;1.20;;
7503;SDS011;3793;48.136;11.536;2022-07-29T01:22:35;1.60;;;1.50;;
7503;SDS011;3793;48.136;11.536;2022-07-29T01:25:11;2.63;;;1.38;;
7503;SDS011;3793;48.136;11.536;2022-07-29T01:27:41;1.45;;;1.30;;
7503;SDS011;3793;48.136;11.536;2022-07-29T01:30:12;1.25;;;1.15;;
7503;SDS011;3793;48.136;11.536;2022-07-29T01:32:39;1.85;;;1.30;;
7503;SDS011;3793;48.136;11.536;2022-07-29T01:35:09;0.90;;;0.88;;
7503;SDS011;3793;48.136;11.536;2022-07-29T01:37:38;2.03;;;1.00;;
7503;SDS011;3793;48.136;11.536;2022-07-29T01:40:07;0.82;;;0.82;;
7503;SDS011;3793;48.136;11.536;2022-07-29T01:42:36;2.50;;;1.40;;
7503;SDS011;3793;48.136;11.536;2022-07-29T01:45:06;0.77;;;0.77;;
7503;SDS011;3793;48.136;11.536;2022-07-29T01:47:37;1.33;;;1.20;;
7503;SDS011;3793;48.136;11.536;2022-07-29T01:50:06;0.88;;;0.70;;
7503;SDS011;3793;48.136;11.536;2022-07-29T01:52:34;1.05;;;0.98;;
7503;SDS011;3793;48.136;11.536;2022-07-29T01:55:04;0.80;;;0.80;;
7503;SDS011;3793;48.136;11.536;2022-07-29T01:57:33;0.90;;;0.90;;
7503;SDS011;3793;48.136;11.536;2022-07-29T02:00:03;0.77;;;0.77;;
7503;SDS011;3793;48.136;11.536;2022-07-29T02:02:31;1.20;;;1.10;;
7503;SDS011;3793;48.136;11.536;2022-07-29T02:05:00;2.13;;;1.10;;
7503;SDS011;3793;48.136;11.536;2022-07-29T02:07:29;1.65;;;1.10;;
7503;SDS011;3793;48.136;11.536;2022-07-29T02:09:58;1.20;;;1.10;;
7503;SDS011;3793;48.136;11.536;2022-07-29T02:12:25;1.05;;;0.95;;
7503;SDS011;3793;48.136;11.536;2022-07-29T02:14:53;2.33;;;1.20;;
7503;SDS011;3793;48.136;11.536;2022-07-29T02:17:21;1.00;;;0.90;;
7503;SDS011;3793;48.136;11.536;2022-07-29T02:19:48;2.17;;;1.13;;
7503;SDS011;3793;48.136;11.536;2022-07-29T02:22:17;1.27;;;1.17;;
7503;SDS011;3793;48.136;11.536;2022-07-29T02:24:44;1.42;;;1.20;;
7503;SDS011;3793;48.136;11.536;2022-07-29T02:27:12;1.58;;;0.90;;
7503;SDS011;3793;48.136;11.536;2022-07-29T02:29:38;1.42;;;1.10;;
7503;SDS011;3793;48.136;11.536;2022-07-29T02:32:06;2.08;;;0.85;;
7503;SDS011;3793;48.136;11.536;2022-07-29T02:34:34;0.90;;;0.90;;
7503;SDS011;3793;48.136;11.536;2022-07-29T02:37:02;1.10;;;1.00;;
7503;SDS011;3793;48.136;11.536;2022-07-29T02:39:30;1.10;;;1.00;;
7503;SDS011;3793;48.136;11.536;2022-07-29T02:41:58;2.17;;;1.10;;
7503;SDS011;3793;48.136;11.536;2022-07-29T02:44:26;2.90;;;1.23;;
7503;SDS011;3793;48.136;11.536;2022-07-29T02:46:53;2.05;;;1.10;;
7503;SDS011;3793;48.136;11.536;2022-07-29T02:49:27;1.25;;;1.15;;
7503;SDS011;3793;48.136;11.536;2022-07-29T02:51:58;1.80;;;1.08;;
7503;SDS011;3793;48.136;11.536;2022-07-29T02:54:27;1.67;;;1.17;;
7503;SDS011;3793;48.136;11.536;2022-07-29T02:56:59;1.63;;;1.02;;
7503;SDS011;3793;48.136;11.536;2022-07-29T02:59:27;1.20;;;1.10;;
7503;SDS011;3793;48.136;11.536;2022-07-29T03:01:57;2.53;;;1.05;;
7503;SDS011;3793;48.136;11.536;2022-07-29T03:04:25;1.50;;;1.05;;
7503;SDS011;3793;48.136;11.536;2022-07-29T03:06:53;1.10;;;1.00;;
7503;SDS011;3793;48.136;11.536;2022-07-29T03:09:20;2.58;;;1.17;;
7503;SDS011;3793;48.136;11.536;2022-07-29T03:11:48;1.30;;;1.10;;
7503;SDS011;3793;48.136;11.536;2022-07-29T03:14:16;1.40;;;1.30;;
7503;SDS011;3793;48.136;11.536;2022-07-29T03:16:42;1.40;;;1.15;;
7503;SDS011;3793;48.136;11.536;2022-07-29T03:19:09;1.33;;;1.10;;
7503;SDS011;3793;48.136;11.536;2022-07-29T03:21:36;1.13;;;1.05;;
7503;SDS011;3793;48.136;11.536;2022-07-29T03:24:02;1.38;;;1.27;;
7503;SDS011;3793;48.136;11.536;2022-07-29T03:26:29;1.30;;;1.17;;
7503;SDS011;3793;48.136;11.536;2022-07-29T03:28:56;1.88;;;1.35;;
7503;SDS011;3793;48.136;11.536;2022-07-29T03:31:24;1.13;;;1.02;;
7503;SDS011;3793;48.136;11.536;2022-07-29T03:33:50;1.10;;;1.00;;
7503;SDS011;3793;48.136;11.536;2022-07-29T03:36:17;1.90;;;1.35;;
7503;SDS011;3793;48.136;11.536;2022-07-29T03:38:44;1.52;;;1.30;;
7503;SDS011;3793;48.136;11.536;2022-07-29T03:41:11;1.30;;;1.20;;
7503;SDS011;3793;48.136;11.536;2022-07-29T03:43:39;1.50;;;1.40;;
7503;SDS011;3793;48.136;11.536;2022-07-29T03:46:07;2.65;;;1.50;;
7503;SDS011;3793;48.136;11.536;2022-07-29T03:48:38;3.30;;;1.30;;
7503;SDS011;3793;48.136;11.536;2022-07-29T03:51:06;1.20;;;1.10;;
7503;SDS011;3793;48.136;11.536;2022-07-29T03:53:32;3.50;;;1.40;;
7503;SDS011;3793;48.136;11.536;2022-07-29T03:56:00;2.67;;;1.50;;
7503;SDS011;3793;48.136;11.536;2022-07-29T03:58:28;1.60;;;1.30;;
7503;SDS011;3793;48.136;11.536;2022-07-29T04:00:56;1.42;;;1.33;;
7503;SDS011;3793;48.136;11.536;2022-07-29T04:03:22;2.78;;;1.50;;
7503;SDS011;3793;48.136;11.536;2022-07-29T04:06:01;2.50;;;1.40;;
7503;SDS011;3793;48.136;11.536;2022-07-29T04:08:27;1.55;;;1.40;;
7503;SDS011;3793;48.136;11.536;2022-07-29T04:10:54;1.88;;;1.50;;
7503;SDS011;3793;48.136;11.536;2022-07-29T04:13:20;1.38;;;1.27;;
7503;SDS011;3793;48.136;11.536;2022-07-29T04:15:47;3.00;;;1.60;;
7503;SDS011;3793;48.136;11.536;2022-07-29T04:18:14;2.00;;;1.45;;
7503;SDS011;3793;48.136;11.536;2022-07-29T04:20:40;1.63;;;1.50;;
7503;SDS011;3793;48.136;11.536;2022-07-29T04:23:08;1.70;;;1.60;;
7503;SDS011;3793;48.136;11.536;2022-07-29T04:25:36;2.88;;;1.50;;
7503;SDS011;3793;48.136;11.536;2022-07-29T04:28:03;2.97;;;1.77;;
7503;SDS011;3793;48.136;11.536;2022-07-29T04:30:30;3.90;;;2.05;;
7503;SDS011;3793;48.136;11.536;2022-07-29T04:32:57;1.38;;;1.20;;
7503;SDS011;3793;48.136;11.536;2022-07-29T04:35:25;1.50;;;1.33;;
7503;SDS011;3793;48.136;11.536;2022-07-29T04:37:52;1.58;;;1.48;;
7503;SDS011;3793;48.136;11.536;2022-07-29T04:40:20;1.80;;;1.60;;
7503;SDS011;3793;48.136;11.536;2022-07-29T04:42:47;5.55;;;1.60;;
7503;SDS011;3793;48.136;11.536;2022-07-29T04:45:13;1.80;;;1.67;;
7503;SDS011;3793;48.136;11.536;2022-07-29T04:47:40;1.65;;;1.30;;
7503;SDS011;3793;48.136;11.536;2022-07-29T04:50:07;3.00;;;1.40;;
7503;SDS011;3793;48.136;11.536;2022-07-29T04:52:34;1.90;;;1.60;;
7503;SDS011;3793;48.136;11.536;2022-07-29T04:55:00;1.48;;;1.38;;
7503;SDS011;3793;48.136;11.536;2022-07-29T04:57:29;2.47;;;1.42;;
7503;SDS011;3793;48.136;11.536;2022-07-29T04:59:55;3.35;;;1.40;;
7503;SDS011;3793;48.136;11.536;2022-07-29T05:02:22;4.45;;;1.73;;
7503;SDS011;3793;48.136;11.536;2022-07-29T05:04:49;2.40;;;1.60;;
7503;SDS011;3793;48.136;11.536;2022-07-29T05:07:15;1.25;;;1.10;;
7503;SDS011;3793;48.136;11.536;2022-07-29T05:09:42;1.40;;;1.30;;
7503;SDS011;3793;48.136;11.536;2022-07-29T05:12:08;3.38;;;1.63;;
7503;SDS011;3793;48.136;11.536;2022-07-29T05:14:37;1.33;;;1.23;;
7503;SDS011;3793;48.136;11.536;2022-07-29T05:17:04;5.30;;;1.70;;
7503;SDS011;3793;48.136;11.536;2022-07-29T05:19:30;1.55;;;1.38;;
7503;SDS011;3793;48.136;11.536;2022-07-29T05:21:57;2.08;;;1.80;;
7503;SDS011;3793;48.136;11.536;2022-07-29T05:24:25;2.42;;;1.70;;
7503;SDS011;3793;48.136;11.536;2022-07-29T05:26:51;2.85;;;2.00;;
7503;SDS011;3793;48.136;11.536;2022-07-29T05:29:18;1.95;;;1.50;;
7503;SDS011;3793;48.136;11.536;2022-07-29T05:31:46;1.48;;;1.33;;
7503;SDS011;3793;48.136;11.536;2022-07-29T05:34:12;2.92;;;1.58;;
7503;SDS011;3793;48.136;11.536;2022-07-29T05:36:39;1.90;;;1.70;;
7503;SDS011;3793;48.136;11.536;2022-07-29T05:39:06;1.85;;;1.50;;
7503;SDS011;3793;48.136;11.536;2022-07-29T05:41:32;1.65;;;1.52;;
7503;SDS011;3793;48.136;11.536;2022-07-29T05:43:59;1.50;;;1.40;;
7503;SDS011;3793;48.136;11.536;2022-07-29T05:46:25;2.22;;;1.20;;
7503;SDS011;3793;48.136;11.536;2022-07-29T05:48:53;2.67;;;1.55;;
7503;SDS011;3793;48.136;11.536;2022-07-29T05:51:20;3.42;;;1.65;;
7503;SDS011;3793;48.136;11.536;2022-07-29T05:53:47;3.13;;;1.50;;
7503;SDS011;3793;48.136;11.536;2022-07-29T05:56:13;1.75;;;1.65;;
7503;SDS011;3793;48.136;11.536;2022-07-29T05:58:40;2.50;;;1.80;;
7503;SDS011;3793;48.136;11.536;2022-07-29T06:01:07;1.90;;;1.70;;
7503;SDS011;3793;48.136;11.536;2022-07-29T06:03:33;1.83;;;1.60;;
7503;SDS011;3793;48.136;11.536;2022-07-29T06:06:04;2.85;;;1.63;;
7503;SDS011;3793;48.136;11.536;2022-07-29T06:08:32;1.92;;;1.55;;
7503;SDS011;3793;48.136;11.536;2022-07-29T06:10:59;1.58;;;1.48;;
7503;SDS011;3793;48.136;11.536;2022-07-29T06:13:27;3.65;;;1.65;;
7503;SDS011;3793;48.136;11.536;2022-07-29T06:15:53;1.95;;;1.65;;
7503;SDS011;3793;48.136;11.536;2022-07-29T06:18:20;1.65;;;1.55;;
7503;SDS011;3793;48.136;11.536;2022-07-29T06:20:48;1.67;;;1.55;;
7503;SDS011;3793;48.136;11.536;2022-07-29T06:23:17;2.58;;;1.40;;
7503;SDS011;3793;48.136;11.536;2022-07-29T06:25:43;2.08;;;1.63;;
7503;SDS011;3793;48.136;11.536;2022-07-29T06:28:10;2.13;;;1.70;;
7503;SDS011;3793;48.136;11.536;2022-07-29T06:30:37;2.53;;;1.75;;
7503;SDS011;3793;48.136;11.536;2022-07-29T06:33:03;2.75;;;2.05;;
7503;SDS011;3793;48.136;11.536;2022-07-29T06:35:30;1.75;;;1.50;;
7503;SDS011;3793;48.136;11.536;2022-07-29T06:38:00;2.30;;;1.92;;
7503;SDS011;3793;48.136;11.536;2022-07-29T06:40:28;4.50;;;1.98;;
7503;SDS011;3793;48.136;11.536;2022-07-29T06:43:12;1.90;;;1.67;;
7503;SDS011;3793;48.136;11.536;2022-07-29T06:45:38;2.20;;;1.73;;
7503;SDS011;3793;48.136;11.536;2022-07-29T06:48:06;4.10;;;1.85;;
7503;SDS011;3793;48.136;11.536;2022-07-29T06:50:32;2.00;;;1.75;;
7503;SDS011;3793;48.136;11.536;2022-07-29T06:52:59;2.80;;;1.75;;
7503;SDS011;3793;48.136;11.536;2022-07-29T06:55:25;3.25;;;1.98;;
7503;SDS011;3793;48.136;11.536;2022-07-29T06:57:53;2.42;;;1.63;;
7503;SDS011;3793;48.136;11.536;2022-07-29T07:00:20;3.28;;;1.77;;
7503;SDS011;3793;48.136;11.536;2022-07-29T07:02:47;1.98;;;1.42;;
7503;SDS011;3793;48.136;11.536;2022-07-29T07:05:13;1.50;;;1.40;;
7503;SDS011;3793;48.136;11.536;2022-07-29T07:07:40;2.03;;;1.70;;
7503;SDS011;3793;48.136;11.536;2022-07-29T07:10:07;2.95;;;1.70;;
7503;SDS011;3793;48.136;11.536;2022-07-29T07:12:33;1.80;;;1.50;;
7503;SDS011;3793;48.136;11.536;2022-07-29T07:15:02;1.40;;;1.30;;
7503;SDS011;3793;48.136;11.536;2022-07-29T07:17:28;3.22;;;1.38;;
7503;SDS011;3793;48.136;11.536;2022-07-29T07:19:55;1.75;;;1.25;;
7503;SDS011;3793;48.136;11.536;2022-07-29T07:22:21;1.90;;;1.30;;
7503;SDS011;3793;48.136;11.536;2022-07-29T07:24:48;1.98;;;1.50;;
7503;SDS011;3793;48.136;11.536;2022-07-29T07:27:15;2.53;;;1.52;;
7503;SDS011;3793;48.136;11.536;2022-07-29T07:29:41;2.15;;;1.20;;
7503;SDS011;3793;48.136;11.536;2022-07-29T07:32:09;2.20;;;1.35;;
7503;SDS011;3793;48.136;11.536;2022-07-29T07:34:38;1.88;;;1.60;;
7503;SDS011;3793;48.136;11.536;2022-07-29T07:37:04;1.85;;;1.40;;
7503;SDS011;3793;48.136;11.536;2022-07-29T07:39:31;3.00;;;1.45;;
7503;SDS011;3793;48.136;11.536;2022-07-29T07:41:58;1.27;;;1.10;;
7503;SDS011;3793;48.136;11.536;2022-07-29T07:44:24;1.70;;;1.48;;
7503;SDS011;3793;48.136;11.536;2022-07-29T07:46:51;1.65;;;1.17;;
7503;SDS011;3793;48.136;11.536;2022-07-29T07:49:19;1.75;;;1.33;;
7503;SDS011;3793;48.136;11.536;2022-07-29T07:51:46;2.55;;;1.55;;
7503;SDS011;3793;48.136;11.536;2022-07-29T07:54:12;2.70;;;1.55;;
7503;SDS011;3793;48.136;11.536;2022-07-29T07:56:39;1.42;;;1.33;;
7503;SDS011;3793;48.136;11.536;2022-07-29T07:59:05;2.42;;;1.48;;
7503;SDS011;3793;48.136;11.536;2022-07-29T08:01:32;1.63;;;1.40;;
7503;SDS011;3793;48.136;11.536;2022-07-29T08:03:59;1.40;;;1.30;;
7503;SDS011;3793;48.136;11.536;2022-07-29T08:06:29;2.70;;;1.42;;
7503;SDS011;3793;48.136;11.536;2022-07-29T08:08:55;2.97;;;1.42;;
7503;SDS011;3793;48.136;11.536;2022-07-29T08:11:22;4.82;;;1.50;;
7503;SDS011;3793;48.136;11.536;2022-07-29T08:13:48;2.53;;;1.60;;
7503;SDS011;3793;48.136;11.536;2022-07-29T08:16:15;3.00;;;1.15;;
7503;SDS011;3793;48.136;11.536;2022-07-29T08:18:42;2.63;;;1.10;;
7503;SDS011;3793;48.136;11.536;2022-07-29T08:21:08;1.50;;;1.40;;
7503;SDS011;3793;48.136;11.536;2022-07-29T08:23:36;1.52;;;1.35;;
7503;SDS011;3793;48.136;11.536;2022-07-29T08:26:04;3.10;;;1.58;;
7503;SDS011;3793;48.136;11.536;2022-07-29T08:28:35;2.28;;;1.40;;
7503;SDS011;3793;48.136;11.536;2022-07-29T08:31:01;2.17;;;1.65;;
7503;SDS011;3793;48.136;11.536;2022-07-29T08:33:28;3.25;;;1.55;;
7503;SDS011;3793;48.136;11.536;2022-07-29T08:35:54;2.72;;;1.70;;
7503;SDS011;3793;48.136;11.536;2022-07-29T08:38:30;2.20;;;2.00;;
7503;SDS011;3793;48.136;11.536;2022-07-29T08:40:59;4.00;;;1.85;;
7503;SDS011;3793;48.136;11.536;2022-07-29T08:43:26;1.60;;;1.50;;
7503;SDS011;3793;48.136;11.536;2022-07-29T08:45:53;2.03;;;1.52;;
7503;SDS011;3793;48.136;11.536;2022-07-29T08:48:21;1.67;;;1.50;;
7503;SDS011;3793;48.136;11.536;2022-07-29T08:50:48;3.10;;;1.50;;
7503;SDS011;3793;48.136;11.536;2022-07-29T08:53:16;1.90;;;1.70;;
7503;SDS011;3793;48.136;11.536;2022-07-29T08:55:44;3.65;;;1.70;;
7503;SDS011;3793;48.136;11.536;2022-07-29T08:58:12;2.33;;;1.90;;
7503;SDS011;3793;48.136;11.536;2022-07-29T09:00:40;2.38;;;1.52;;
7503;SDS011;3793;48.136;11.536;2022-07-29T09:03:08;3.63;;;1.80;;
7503;SDS011;3793;48.136;11.536;2022-07-29T09:05:35;4.03;;;1.73;;
7503;SDS011;3793;48.136;11.536;2022-07-29T09:08:02;2.50;;;1.90;;
7503;SDS011;3793;48.136;11.536;2022-07-29T09:10:28;2.85;;;1.73;;
7503;SDS011;3793;48.136;11.536;2022-07-29T09:12:55;2.30;;;1.80;;
7503;SDS011;3793;48.136;11.536;2022-07-29T09:15:23;2.75;;;1.80;;
7503;SDS011;3793;48.136;11.536;2022-07-29T09:17:55;2.33;;;1.70;;
7503;SDS011;3793;48.136;11.536;2022-07-29T09:20:23;1.85;;;1.70;;
7503;SDS011;3793;48.136;11.536;2022-07-29T09:22:50;6.03;;;1.92;;
7503;SDS011;3793;48.136;11.536;2022-07-29T09:25:31;1.92;;;1.73;;
7503;SDS011;3793;48.136;11.536;2022-07-29T09:28:05;1.83;;;1.60;;
7503;SDS011;3793;48.136;11.536;2022-07-29T09:30:33;2.42;;;1.90;;
7503;SDS011;3793;48.136;11.536;2022-07-29T09:33:00;4.00;;;1.77;;
7503;SDS011;3793;48.136;11.536;2022-07-29T09:35:33;2.03;;;1.80;;
7503;SDS011;3793;48.136;11.536;2022-07-29T09:38:09;3.13;;;1.90;;
7503;SDS011;3793;48.136;11.536;2022-07-29T09:40:36;1.90;;;1.60;;
7503;SDS011;3793;48.136;11.536;2022-07-29T09:43:09;2.95;;;2.08;;
7503;SDS011;3793;48.136;11.536;2022-07-29T09:45:37;2.50;;;2.00;;
7503;SDS011;3793;48.136;11.536;2022-07-29T09:48:12;3.58;;;2.22;;
7503;SDS011;3793;48.136;11.536;2022-07-29T09:50:39;1.90;;;1.80;;
7503;SDS011;3793;48.136;11.536;2022-07-29T09:53:07;3.35;;;2.05;;
7503;SDS011;3793;48.136;11.536;2022-07-29T09:55:45;3.05;;;1.95;;
7503;SDS011;3793;48.136;11.536;2022-07-29T09:58:15;2.08;;;1.88;;
7503;SDS011;3793;48.136;11.536;2022-07-29T10:00:43;3.35;;;1.80;;
7503;SDS011;3793;48.136;11.536;2022-07-29T10:06:06;2.22;;;2.03;;
7503;SDS011;3793;48.136;11.536;2022-07-29T10:08:33;3.13;;;2.00;;
7503;SDS011;3793;48.136;11.536;2022-07-29T10:11:08;2.58;;;2.35;;
7503;SDS011;3793;48.136;11.536;2022-07-29T10:13:35;2.88;;;2.28;;
7503;SDS011;3793;48.136;11.536;2022-07-29T10:16:03;2.70;;;2.20;;
7503;SDS011;3793;48.136;11.536;2022-07-29T10:18:30;3.85;;;2.15;;
7503;SDS011;3793;48.136;11.536;2022-07-29T10:20:58;3.72;;;2.22;;
7503;SDS011;3793;48.136;11.536;2022-07-29T10:23:26;2.75;;;2.00;;
7503;SDS011;3793;48.136;11.536;2022-07-29T10:25:53;1.92;;;1.80;;
7503;SDS011;3793;48.136;11.536;2022-07-29T10:28:19;3.50;;;2.20;;
7503;SDS011;3793;48.136;11.536;2022-07-29T10:30:46;4.07;;;2.10;;
7503;SDS011;3793;48.136;11.536;2022-07-29T10:33:21;2.75;;;2.00;;
7503;SDS011;3793;48.136;11.536;2022-07-29T10:35:59;2.40;;;1.90;;
7503;SDS011;3793;48.136;11.536;2022-07-29T10:38:39;4.22;;;2.15;;
7503;SDS011;3793;48.136;11.536;2022-07-29T10:41:11;2.58;;;2.05;;
7503;SDS011;3793;48.136;11.536;2022-07-29T10:43:55;2.25;;;2.00;;
7503;SDS011;3793;48.136;11.536;2022-07-29T10:46:23;2.83;;;2.00;;
7503;SDS011;3793;48.136;11.536;2022-07-29T10:49:07;2.92;;;2.00;;
7503;SDS011;3793;48.136;11.536;2022-07-29T10:57:24;3.55;;;1.90;;
7503;SDS011;3793;48.136;11.536;2022-07-29T11:02:40;2.20;;;1.90;;
7503;SDS011;3793;48.136;11.536;2022-07-29T11:05:10;3.50;;;2.42;;
7503;SDS011;3793;48.136;11.536;2022-07-29T11:07:38;3.65;;;2.03;;
7503;SDS011;3793;48.136;11.536;2022-07-29T11:10:20;3.85;;;2.08;;
7503;SDS011;3793;48.136;11.536;2022-07-29T11:12:47;2.60;;;2.10;;
7503;SDS011;3793;48.136;11.536;2022-07-29T11:15:16;5.45;;;2.08;;
7503;SDS011;3793;48.136;11.536;2022-07-29T11:20:40;2.03;;;1.80;;
7503;SDS011;3793;48.136;11.536;2022-07-29T11:23:20;3.47;;;2.15;;
7503;SDS011;3793;48.136;11.536;2022-07-29T11:28:29;5.85;;;2.38;;
7503;SDS011;3793;48.136;11.536;2022-07-29T11:30:56;3.13;;;2.03;;
7503;SDS011;3793;48.136;11.536;2022-07-29T11:33:27;2.97;;;1.92;;
7503;SDS011;3793;48.136;11.536;2022-07-29T11:36:11;5.10;;;2.10;;
7503;SDS011;3793;48.136;11.536;2022-07-29T11:38:38;3.50;;;1.88;;
7503;SDS011;3793;48.136;11.536;2022-07-29T11:41:19;5.78;;;2.10;;
7503;SDS011;3793;48.136;11.536;2022-07-29T11:43:45;3.97;;;2.10;;
7503;SDS011;3793;48.136;11.536;2022-07-29T11:46:12;2.47;;;2.17;;
7503;SDS011;3793;48.136;11.536;2022-07-29T11:48:41;3.13;;;1.65;;
7503;SDS011;3793;48.136;11.536;2022-07-29T11:51:08;2.88;;;2.05;;
7503;SDS011;3793;48.136;11.536;2022-07-29T11:53:37;2.38;;;1.90;;
7503;SDS011;3793;48.136;11.536;2022-07-29T11:56:03;3.53;;;2.10;;
7503;SDS011;3793;48.136;11.536;2022-07-29T11:58:30;3.13;;;2.10;;
7503;SDS011;3793;48.136;11.536;2022-07-29T12:00:57;3.55;;;2.05;;
7503;SDS011;3793;48.136;11.536;2022-07-29T12:03:25;3.13;;;2.03;;
7503;SDS011;3793;48.136;11.536;2022-07-29T12:05:52;2.00;;;1.80;;
7503;SDS011;3793;48.136;11.536;2022-07-29T12:08:22;3.47;;;1.88;;
7503;SDS011;3793;48.136;11.536;2022-07-29T12:10:52;2.38;;;1.70;;
7503;SDS011;3793;48.136;11.536;2022-07-29T12:13:19;2.55;;;1.90;;
7503;SDS011;3793;48.136;11.536;2022-07-29T12:15:51;1.83;;;1.70;;
7503;SDS011;3793;48.136;11.536;2022-07-29T12:18:18;3.63;;;2.22;;
7503;SDS011;3793;48.136;11.536;2022-07-29T12:20:47;7.90;;;2.00;;
7503;SDS011;3793;48.136;11.536;2022-07-29T12:23:14;4.32;;;2.00;;
7503;SDS011;3793;48.136;11.536;2022-07-29T12:25:42;4.68;;;2.30;;
7503;SDS011;3793;48.136;11.536;2022-07-29T12:28:11;3.72;;;2.40;;
7503;SDS011;3793;48.136;11.536;2022-07-29T12:30:40;2.60;;;2.03;;
7503;SDS011;3793;48.136;11.536;2022-07-29T12:33:10;3.58;;;2.95;;
7503;SDS011;3793;48.136;11.536;2022-07-29T12:35:37;2.53;;;2.00;;
7503;SDS011;3793;48.136;11.536;2022-07-29T12:38:04;5.78;;;1.95;;
7503;SDS011;3793;48.136;11.536;2022-07-29T12:40:30;3.00;;;1.83;;
7503;SDS011;3793;48.136;11.536;2022-07-29T12:43:07;4.05;;;1.92;;
7503;SDS011;3793;48.136;11.536;2022-07-29T12:45:35;7.85;;;2.40;;
7503;SDS011;3793;48.136;11.536;2022-07-29T12:48:02;4.60;;;1.98;;
7503;SDS011;3793;48.136;11.536;2022-07-29T12:50:29;3.45;;;1.70;;
7503;SDS011;3793;48.136;11.536;2022-07-29T12:53:07;3.70;;;2.03;;
7503;SDS011;3793;48.136;11.536;2022-07-29T12:55:40;4.38;;;1.95;;
7503;SDS011;3793;48.136;11.536;2022-07-29T12:58:07;2.75;;;1.95;;
7503;SDS011;3793;48.136;11.536;2022-07-29T13:00:35;3.90;;;1.90;;
7503;SDS011;3793;48.136;11.536;2022-07-29T13:03:02;2.35;;;1.80;;
7503;SDS011;3793;48.136;11.536;2022-07-29T13:05:38;8.63;;;2.10;;
7503;SDS011;3793;48.136;11.536;2022-07-29T13:08:15;3.05;;;2.03;;
7503;SDS011;3793;48.136;11.536;2022-07-29T13:10:41;4.70;;;2.00;;
7503;SDS011;3793;48.136;11.536;2022-07-29T13:13:09;3.80;;;2.70;;
7503;SDS011;3793;48.136;11.536;2022-07-29T13:15:37;5.53;;;2.17;;
7503;SDS011;3793;48.136;11.536;2022-07-29T13:18:05;2.20;;;2.00;;
7503;SDS011;3793;48.136;11.536;2022-07-29T13:20:32;4.05;;;1.70;;
7503;SDS011;3793;48.136;11.536;2022-07-29T13:22:59;3.30;;;2.22;;
7503;SDS011;3793;48.136;11.536;2022-07-29T13:25:27;2.47;;;1.90;;
7503;SDS011;3793;48.136;11.536;2022-07-29T13:27:54;2.75;;;2.03;;
7503;SDS011;3793;48.136;11.536;2022-07-29T13:30:21;2.58;;;2.00;;
7503;SDS011;3793;48.136;11.536;2022-07-29T13:32:50;5.75;;;2.22;;
7503;SDS011;3793;48.136;11.536;2022-07-29T13:35:17;2.33;;;2.03;;
7503;SDS011;3793;48.136;11.536;2022-07-29T13:37:44;3.40;;;1.90;;
7503;SDS011;3793;48.136;11.536;2022-07-29T13:40:11;4.43;;;2.00;;
7503;SDS011;3793;48.136;11.536;2022-07-29T13:42:38;4.55;;;2.20;;
7503;SDS011;3793;48.136;11.536;2022-07-29T13:45:06;5.63;;;2.10;;
7503;SDS011;3793;48.136;11.536;2022-07-29T13:47:33;2.40;;;2.20;;
7503;SDS011;3793;48.136;11.536;2022-07-29T13:50:01;3.10;;;1.80;;
7503;SDS011;3793;48.136;11.536;2022-07-29T13:52:28;3.00;;;2.03;;
7503;SDS011;3793;48.136;11.536;2022-07-29T13:54:55;4.07;;;2.17;;
7503;SDS011;3793;48.136;11.536;2022-07-29T13:57:21;2.55;;;1.85;;
7503;SDS011;3793;48.136;11.536;2022-07-29T13:59:48;3.25;;;2.10;;
7503;SDS011;3793;48.136;11.536;2022-07-29T14:02:16;3.80;;;2.10;;
7503;SDS011;3793;48.136;11.536;2022-07-29T14:04:42;2.20;;;1.77;;
7503;SDS011;3793;48.136;11.536;2022-07-29T14:07:10;3.10;;;1.65;;
7503;SDS011;3793;48.136;11.536;2022-07-29T14:09:37;2.22;;;1.70;;
7503;SDS011;3793;48.136;11.536;2022-07-29T14:12:04;4.80;;;1.80;;
7503;SDS011;3793;48.136;11.536;2022-07-29T14:14:31;2.30;;;1.70;;
7503;SDS011;3793;48.136;11.536;2022-07-29T14:16:58;5.05;;;2.08;;
7503;SDS011;3793;48.136;11.536;2022-07-29T14:19:24;5.93;;;2.22;;
7503;SDS011;3793;48.136;11.536;2022-07-29T14:21:51;3.50;;;1.92;;
7503;SDS011;3793;48.136;11.536;2022-07-29T14:24:19;5.00;;;2.03;;
7503;SDS011;3793;48.136;11.536;2022-07-29T14:26:46;4.05;;;1.70;;
7503;SDS011;3793;48.136;11.536;2022-07-29T14:29:12;5.90;;;1.90;;
7503;SDS011;3793;48.136;11.536;2022-07-29T14:31:39;2.83;;;1.75;;
7503;SDS011;3793;48.136;11.536;2022-07-29T14:34:05;1.70;;;1.60;;
7503;SDS011;3793;48.136;11.536;2022-07-29T14:36:32;4.28;;;1.77;;
7503;SDS011;3793;48.136;11.536;2022-07-29T14:38:58;2.00;;;1.80;;
7503;SDS011;3793;48.136;11.536;2022-07-29T14:41:26;6.47;;;1.90;;
7503;SDS011;3793;48.136;11.536;2022-07-29T14:43:53;1.55;;;1.45;;
7503;SDS011;3793;48.136;11.536;2022-07-29T14:46:20;5.15;;;1.92;;
7503;SDS011;3793;48.136;11.536;2022-07-29T14:48:46;2.45;;;1.67;;
7503;SDS011;3793;48.136;11.536;2022-07-29T14:51:13;2.53;;;1.83;;
7503;SDS011;3793;48.136;11.536;2022-07-29T14:53:39;4.63;;;2.08;;
7503;SDS011;3793;48.136;11.536;2022-07-29T14:56:06;4.32;;;1.83;;
7503;SDS011;3793;48.136;11.536;2022-07-29T14:58:34;3.55;;;2.20;;
7503;SDS011;3793;48.136;11.536;2022-07-29T15:01:00;3.65;;;1.95;;
7503;SDS011;3793;48.136;11.536;2022-07-29T15:03:27;2.83;;;1.70;;
7503;SDS011;3793;48.136;11.536;2022-07-29T15:05:54;2.63;;;1.83;;
7503;SDS011;3793;48.136;11.536;2022-07-29T15:08:20;3.40;;;1.98;;
7503;SDS011;3793;48.136;11.536;2022-07-29T15:10:47;2.63;;;1.90;;
7503;SDS011;3793;48.136;11.536;2022-07-29T15:13:14;3.38;;;1.70;;
7503;SDS011;3793;48.136;11.536;2022-07-29T15:15:42;2.10;;;1.90;;
7503;SDS011;3793;48.136;11.536;2022-07-29T15:18:09;4.03;;;2.20;;
7503;SDS011;3793;48.136;11.536;2022-07-29T15:20:36;3.42;;;1.88;;
7503;SDS011;3793;48.136;11.536;2022-07-29T15:23:02;2.15;;;1.95;;